Gold Express — FMEQ — position and weather

sailwx.info

Track history (hours):
 
Tides and Currents Weather Stations Pressure Air Temp Water Temp Dewpoint Dewpoint Depression Visibility Wind Speed Wind Dir Waves Ship Positions

Gold Express

Last reported at 2017-Dec-11 17:00 UTC. Time now 2017-Dec-13 14:47 UTC.
Position N 16°14' W 061°33'.

Length 47 m; draft 2 m.

Type: High speed craft. MMSI: 329001200.

Date/timePositionNaut miles runAvg speedWind from/ knotsBaromVisibWave heightAir tempDewpointWater temp
2017-Dec-11 17:00N 16°14' W 061°33'5 1.2
2017-Dec-11 12:34N 16°10' W 061°30'233.7
2017-Dec-11 12:30N 16°12' W 061°31'3 5.6
2017-Dec-11 11:58N 16°14' W 061°33'0 0.0
2017-Dec-11 11:30N 16°14' W 061°33'0 0.0
2017-Dec-11 11:00N 16°14' W 061°33'1 0.1
2017-Dec-10 23:53N 16°13' W 061°32'1 1.8
2017-Dec-10 23:30N 16°14' W 061°32'1 0.7
2017-Dec-10 21:28N 16°13' W 061°32'1 0.1
2017-Dec-10 12:28N 16°12' W 061°31'3 5.6
2017-Dec-10 11:59N 16°14' W 061°33'0 0.0
2017-Dec-10 11:30N 16°14' W 061°33'0 0.0
2017-Dec-10 11:00N 16°14' W 061°33'0 0.0
2017-Dec-09 21:16N 16°14' W 061°32'0 0.2
2017-Dec-09 20:54N 16°14' W 061°33'1 0.2
2017-Dec-09 17:21N 16°14' W 061°32'1 1.8
2017-Dec-09 16:57N 16°14' W 061°33'2 0.4
2017-Dec-09 12:28N 16°13' W 061°32'1 0.1
2017-Dec-08 21:23N 16°14' W 061°32'1 0.0
2017-Dec-07 13:01N 16°14' W 061°33'0 0.0
2017-Dec-07 13:01N 16°14' W 061°33'0 0.0
2017-Dec-07 11:42N 16°14' W 061°33'0 0.1
2017-Dec-07 10:43N 16°14' W 061°32'0 0.9
2017-Dec-07 10:28N 16°14' W 061°33'0 0.3
2017-Dec-07 09:54N 16°14' W 061°33'0 0.0
2017-Dec-07 09:28N 16°14' W 061°33'0 0.0
2017-Dec-07 08:58N 16°14' W 061°33'0 0.0
2017-Dec-07 08:03N 16°14' W 061°33'0 0.0
2017-Dec-07 07:58N 16°14' W 061°33'0 0.0
2017-Dec-07 07:26N 16°14' W 061°33'0 0.0
2017-Dec-07 06:56N 16°14' W 061°33'0 0.0
2017-Dec-07 05:24N 16°14' W 061°33'  
2017-Dec-03 12:33N 16°10' W 061°30'332.9
2017-Dec-03 12:28N 16°13' W 061°32'2 1.4
2017-Dec-03 11:02N 16°14' W 061°33'0 7.0
2017-Dec-03 11:00N 16°14' W 061°32'0 0.0
2017-Dec-02 16:58N 16°14' W 061°33'9 2.1
2017-Dec-02 12:42N 16°06' W 061°28'9 2.0
2017-Dec-02 08:20N 16°14' W 061°33'0 0.0
2017-Dec-02 08:00N 16°14' W 061°33'0 0.0
2017-Dec-02 07:30N 16°14' W 061°33'0 0.0
2017-Dec-02 06:58N 16°14' W 061°33'0 0.0
2017-Dec-01 20:57N 16°14' W 061°33'8 2.4
2017-Dec-01 17:40N 16°07' W 061°29'726.7
2017-Dec-01 17:25N 16°13' W 061°32'  
Track history (hours):
 
Tides and Currents Weather Stations Pressure Air Temp Water Temp Dewpoint Dewpoint Depression Visibility Wind Speed Wind Dir Waves Ship Positions

Gold Express

Last reported at 2017-Dec-11 17:00 UTC. Time now 2017-Dec-13 14:47 UTC.
Position N 16°14' W 061°33'.

Length 47 m; draft 2 m.

Type: High speed craft. MMSI: 329001200.

Date/timePositionNaut miles runAvg speedWind from/ knotsBaromVisibWave heightAir tempDewpointWater temp
2017-Dec-11 17:00N 16°14' W 061°33'5 1.2
2017-Dec-11 12:34N 16°10' W 061°30'233.7
2017-Dec-11 12:30N 16°12' W 061°31'3 5.6
2017-Dec-11 11:58N 16°14' W 061°33'0 0.0
2017-Dec-11 11:30N 16°14' W 061°33'0 0.0
2017-Dec-11 11:00N 16°14' W 061°33'1 0.1
2017-Dec-10 23:53N 16°13' W 061°32'1 1.8
2017-Dec-10 23:30N 16°14' W 061°32'1 0.7
2017-Dec-10 21:28N 16°13' W 061°32'1 0.1
2017-Dec-10 12:28N 16°12' W 061°31'3 5.6
2017-Dec-10 11:59N 16°14' W 061°33'0 0.0
2017-Dec-10 11:30N 16°14' W 061°33'0 0.0
2017-Dec-10 11:00N 16°14' W 061°33'0 0.0
2017-Dec-09 21:16N 16°14' W 061°32'0 0.2
2017-Dec-09 20:54N 16°14' W 061°33'1 0.2
2017-Dec-09 17:21N 16°14' W 061°32'1 1.8
2017-Dec-09 16:57N 16°14' W 061°33'2 0.4
2017-Dec-09 12:28N 16°13' W 061°32'1 0.1
2017-Dec-08 21:23N 16°14' W 061°32'1 0.0
2017-Dec-07 13:01N 16°14' W 061°33'0 0.0
2017-Dec-07 13:01N 16°14' W 061°33'0 0.0
2017-Dec-07 11:42N 16°14' W 061°33'0 0.1
2017-Dec-07 10:43N 16°14' W 061°32'0 0.9
2017-Dec-07 10:28N 16°14' W 061°33'0 0.3
2017-Dec-07 09:54N 16°14' W 061°33'0 0.0
2017-Dec-07 09:28N 16°14' W 061°33'0 0.0
2017-Dec-07 08:58N 16°14' W 061°33'0 0.0
2017-Dec-07 08:03N 16°14' W 061°33'0 0.0
2017-Dec-07 07:58N 16°14' W 061°33'0 0.0
2017-Dec-07 07:26N 16°14' W 061°33'0 0.0
2017-Dec-07 06:56N 16°14' W 061°33'0 0.0
2017-Dec-07 05:24N 16°14' W 061°33'  
2017-Dec-03 12:33N 16°10' W 061°30'332.9
2017-Dec-03 12:28N 16°13' W 061°32'2 1.4
2017-Dec-03 11:02N 16°14' W 061°33'0 7.0
2017-Dec-03 11:00N 16°14' W 061°32'0 0.0
2017-Dec-02 16:58N 16°14' W 061°33'9 2.1
2017-Dec-02 12:42N 16°06' W 061°28'9 2.0
2017-Dec-02 08:20N 16°14' W 061°33'0 0.0
2017-Dec-02 08:00N 16°14' W 061°33'0 0.0
2017-Dec-02 07:30N 16°14' W 061°33'0 0.0
2017-Dec-02 06:58N 16°14' W 061°33'0 0.0
2017-Dec-01 20:57N 16°14' W 061°33'8 2.4
2017-Dec-01 17:40N 16°07' W 061°29'726.7
2017-Dec-01 17:25N 16°13' W 061°32'  

Dump ship's entire track history